Aviation Digital Data Service (ADDS)

Output produced by METARs form (1557 UTC 20 March 2019)
found at http://www.aviationweather.gov/metar/data/
 
Forecast for: LIRN (NAPLES/CAPODICHI, IT)
Text: TAF LIRN 201100Z 2012/2112 04014KT 9999 SCT040
Forecast period: 1200 UTC 20 March 2019 to 1200 UTC 21 March 2019
Forecast type: FROM: standard forecast or significant change
Winds: from the NE (40 degrees) at 16 MPH (14 knots; 7.2 m/s)
Visibility: 6 or more miles 10+ km)
Ceiling: at least 12,000 feet AGL
Clouds: scattered clouds at 4000 feet AGL
Weather: no significant weather forecast for this period
Text: TEMPO 2012/2015 RA
Forecast period: 1200 to 1500 UTC 20 March 2019
Forecast type: TEMPORARY: The following changes expected for less than half the time period
Visibility: missing
Ceiling: unknown
Clouds: missing
Weather: RA  (moderate rain)